Flight Track Log - Related Links

Times and Time Zones

All times are in EDT time to prevent confusion due to time zone crossing. See the N3681Y flight status page for this flight to view local times or setup timezone preferences in your user account.

Time Position Orientation Groundspeed Altitude Reporting Facility
EDT Latitude Longitude Course Direction KTS MPH feet Rate Location/Type
Fri 06:13:24 PM 26.7694 -80.8492 295° West 162 186 4,400  Level Miami Center
Fri 06:14:24 PM 26.7850 -80.8869 295° West 156 180 4,400 50 Level Miami Center
Fri 06:15:24 PM 26.8069 -80.9250 303° West 156 180 4,500 50 Climbing Miami Center
Fri 06:16:24 PM 26.8308 -80.9675 302° West 156 180 4,500 50 Level Miami Center
Fri 06:17:24 PM 26.8506 -81.0103 297° West 156 180 4,600 100 Climbing Miami Center
Fri 06:18:24 PM 26.8722 -81.0483 303° West 156 180 4,700 -50 Climbing Miami Center
Fri 06:19:24 PM 26.8858 -81.0861 292° West 156 180 4,500 -150 Descending Miami Center
Fri 06:20:24 PM 26.9075 -81.1286 300° West 156 180 4,400 -100 Descending Miami Center
Fri 06:21:24 PM 26.9292 -81.1736 298° West 156 180 4,300 -50 Descending Miami Center
Fri 06:22:23 PM 26.9467 -81.2139 296° West 156 180 4,300  Level Miami Center
Fri 06:23:23 PM 26.9686 -81.2544 301° West 150 173 4,300 99 Level Miami Center
Fri 06:24:24 PM 26.9881 -81.2947 298° West 150 173 4,500 99 Climbing Miami Center
Fri 06:25:24 PM 27.0100 -81.3328 303° West 150 173 4,500  Level Miami Center
Fri 06:26:24 PM 27.0297 -81.3733 299° West 150 173 4,500 -50 Level Miami Center
Fri 06:27:24 PM 27.0511 -81.4161 299° West 150 173 4,400 -100 Descending Miami Center
Fri 06:28:24 PM 27.0708 -81.4589 297° West 161 185 4,300 -50 Descending Miami Center
Fri 06:29:24 PM 27.0883 -81.4992 296° West 161 185 4,300 50 Level Miami Center
Fri 06:30:24 PM 27.1078 -81.5394 298° West 156 180 4,400  Climbing Miami Center
Fri 06:31:24 PM 27.1253 -81.5800 296° West 150 173 4,300 -50 Descending Miami Center
Fri 06:32:24 PM 27.1450 -81.6181 300° West 150 173 4,300  Level Miami Center
Fri 06:33:24 PM 27.1667 -81.6564 302° West 145 167 4,300  Level Miami Center
Fri 06:34:24 PM 27.1883 -81.6944 303° West 145 167 4,300  Level Miami Center
Fri 06:35:24 PM 27.2078 -81.7350 298° West 140 161 4,300  Level Miami Center
Fri 06:36:24 PM 27.2294 -81.7733 302° West 140 161 4,300 50 Level Miami Center
Fri 06:37:24 PM 27.2469 -81.8161 295° West 140 161 4,400 50 Climbing Miami Center
Fri 06:38:24 PM 27.2664 -81.8542 300° West 140 161 4,400 50 Level Miami Center
Fri 06:39:24 PM 27.2858 -81.8947 298° West 140 161 4,500 50 Climbing Miami Center
Fri 06:40:24 PM 27.3075 -81.9356 301° West 140 161 4,500  Level Miami Center
Fri 06:41:24 PM 27.3311 -81.9764 303° West 145 167 4,500  Level Miami Center
Fri 06:42:24 PM 27.3525 -82.0169 301° West 145 167 4,500 1,000 Level Miami Center
Fri 06:43:24 PM 27.3739 -82.0575 301° West 145 167 6,500 1,000 Climbing Miami Center
Fri 06:44:24 PM 27.3956 -82.0983 301° West 150 173 6,500 -1,000 Level Miami Center
Fri 06:45:24 PM 27.4192 -82.1392 303° West 150 173 4,500 -1,000 Descending Miami Center
Fri 06:46:24 PM 27.4425 -82.1800 303° West 150 173 4,500  Level Miami Center
Fri 06:47:24 PM 27.4661 -82.2208 303° West 150 173 4,500 50 Level Miami Center
Fri 06:48:24 PM 27.4894 -82.2642 301° West 150 173 4,600 50 Climbing Miami Center
Fri 06:49:24 PM 27.5131 -82.3050 303° West 150 173 4,600 -202 Level Miami Center
Fri 06:50:23 PM 27.5325 -82.3456 298° West 155 178 4,200 -564 Descending Miami Center
Fri 06:51:21 PM 27.5667 -82.4000 305° West 178 205 3,500 -763 Descending Tampa TRACON
Fri 06:52:21 PM 27.5833 -82.4333 299° West 179 206 2,700 -550 Descending Tampa TRACON
Fri 06:53:21 PM 27.6167 -82.4833 307° West 161 185 2,400 -200 Descending Tampa TRACON
Fri 06:54:21 PM 27.6333 -82.5167 299° West 141 162 2,300 -50 Descending Tampa TRACON
Fri 06:55:21 PM 27.6500 -82.5667 291° West 139 160 2,300 52 Level Tampa TRACON
Fri 06:56:16 PM 27.6667 -82.6000 299° West 136 157 2,400 100 Climbing Tampa TRACON
Fri 06:57:21 PM 27.7000 -82.6333 318° Northwest 133 153 2,500 -200 Climbing Tampa TRACON
Fri 06:58:16 PM 27.7167 -82.6500 318° Northwest 146 168 2,000 -316 Descending Tampa TRACON
Fri 06:59:15 PM 27.7500 -82.6667 336° Northwest 144 166 1,900 -50 Descending Tampa TRACON
Fri 07:00:16 PM 27.8000 -82.6833 344° North 137 158 1,900 -99 Level Tampa TRACON
Fri 07:01:16 PM 27.8333 -82.7000 336° Northwest 134 154 1,700 -250 Descending Tampa TRACON
Fri 07:02:16 PM 27.8667 -82.7167 336° Northwest 146 168 1,400 -39 Descending Tampa TRACON
Fri 07:19:05 PM 27.9333 -82.7500 180° South 113 130 1,000 -17 Descending Tampa TRACON
Fri 07:20:05 PM 27.9000 -82.7500 180° South 131 151 1,100  Climbing Tampa TRACON
Fri 07:21:05 PM 27.8667 -82.7333 156° South 135 155 1,000  Descending Tampa TRACON
Fri 07:22:11 PM 27.8333 -82.7167 156° South 131 151 1,100 143 Climbing Tampa TRACON
Fri 07:23:11 PM 27.8000 -82.6833 139° Southeast 139 160 1,300 150 Climbing Tampa TRACON
Fri 07:24:11 PM 27.7833 -82.6333 111° Southeast 130 150 1,400 -200 Climbing Tampa TRACON
Fri 07:25:11 PM 27.7833 -82.6167 90° East 97 112 900 -500 Descending Tampa TRACON

Login

Don't have an account? Register now (free) for customized features, flight alerts, and more!